Aul Turara Ryskulova, Kazakhstan

9:17 PM +06 on July 27, 2016 (GMT +0600)
Shymkent | | Change Station

Elev 1385 ft 42.37 °N, 69.48 °E | Updated 17 minutes ago

Overcast
Overcast
84 °F
Feels Like 84 °F
N
2
Wind Variable Wind from Variable

Today
High -- | Low -- °F
--% Chance of Precip.
Yesterday
High -- | Low -- °F
Precip. -- in
Pressure 29.68 in
Visibility 6.2 miles
Clouds Mostly Cloudy 5000 ft
Overcast 10000 ft
Heat Index 84 °F
Dew Point 59 °F
Humidity 42%
Rainfall 0.00 in
Snow Depth Not available.
6:06 AM 8:43 PM
Last Quarter, 42% visible
METAR UAII 271500Z VRB01MPS 9999 BKN050CB OVC100 29/15 Q1005 R10/0///70 NOSIG RMK QFE718/0958
Pressure 29.68 in
Visibility 6.2 miles
Clouds Mostly Cloudy 5000 ft
Overcast 10000 ft
Heat Index 84 °F
Dew Point 59 °F
Humidity 42%
Rainfall 0.00 in
Snow Depth Not available.
6:06 AM 8:43 PM
Last Quarter, 42% visible
METAR UAII 271500Z VRB01MPS 9999 BKN050CB OVC100 29/15 Q1005 R10/0///70 NOSIG RMK QFE718/0958

10-Day Weather Forecast

×

Almanac

Astronomy

Jul. 27, 2016 Rise Set
Actual Time
Civil Twilight
Nautical Twilight
Astronomical Twilight
Moon
Length of Visible Light
Length of Day
Tomorrow will be .
, % of the Moon is Illuminated

Today's Extremes

Country Highs Country Lows

Community

WunderPhotos

Upload Photos

1,927,858 photos uploaded!

WunderBlog® & News

Nearby

Air Quality

  Air Quality AQ Index Pollutant
Not available.

Snow Depth

Station Depth Elevation

Earthquake Activity

City Distance Mag. Time & Date
Minimum magnitude displayed is 2.5.

Coastal Water Temperatures

Place Temperature

Stations

Nearby Weather Stations

Station Location Temp. Windchill Dew Point Humidity Wind Precip. Elev Updated Type